sensor_id;sensor_type;location;lat;lon;timestamp;temperature;humidity
85097;SHT30;75436;53.502;10.030;2024-03-08T00:01:06;1.06;88.25
85097;SHT30;75436;53.502;10.030;2024-03-08T00:03:32;1.03;88.15
85097;SHT30;75436;53.502;10.030;2024-03-08T00:05:58;0.96;88.16
85097;SHT30;75436;53.502;10.030;2024-03-08T00:08:23;0.94;88.43
85097;SHT30;75436;53.502;10.030;2024-03-08T00:10:49;0.88;88.40
85097;SHT30;75436;53.502;10.030;2024-03-08T00:13:14;0.85;88.67
85097;SHT30;75436;53.502;10.030;2024-03-08T00:15:40;0.87;88.91
85097;SHT30;75436;53.502;10.030;2024-03-08T00:18:06;0.81;88.86
85097;SHT30;75436;53.502;10.030;2024-03-08T00:20:32;0.78;88.92
85097;SHT30;75436;53.502;10.030;2024-03-08T00:22:57;0.78;89.09
85097;SHT30;75436;53.502;10.030;2024-03-08T00:25:23;0.77;89.08
85097;SHT30;75436;53.502;10.030;2024-03-08T00:27:49;0.78;89.40
85097;SHT30;75436;53.502;10.030;2024-03-08T00:30:24;0.74;89.13
85097;SHT30;75436;53.502;10.030;2024-03-08T00:32:50;0.72;89.20
85097;SHT30;75436;53.502;10.030;2024-03-08T00:35:15;0.68;89.17
85097;SHT30;75436;53.502;10.030;2024-03-08T00:37:41;0.65;89.26
85097;SHT30;75436;53.502;10.030;2024-03-08T00:40:13;0.61;89.35
85097;SHT30;75436;53.502;10.030;2024-03-08T00:42:38;0.61;89.45
85097;SHT30;75436;53.502;10.030;2024-03-08T00:45:05;0.58;89.55
85097;SHT30;75436;53.502;10.030;2024-03-08T00:47:30;0.53;89.63
85097;SHT30;75436;53.502;10.030;2024-03-08T00:49:56;0.51;89.84
85097;SHT30;75436;53.502;10.030;2024-03-08T00:52:22;0.54;89.97
85097;SHT30;75436;53.502;10.030;2024-03-08T00:54:49;0.51;89.94
85097;SHT30;75436;53.502;10.030;2024-03-08T00:57:14;0.54;90.04
85097;SHT30;75436;53.502;10.030;2024-03-08T00:59:40;0.49;89.90
85097;SHT30;75436;53.502;10.030;2024-03-08T01:02:05;0.43;89.95
85097;SHT30;75436;53.502;10.030;2024-03-08T01:04:31;0.39;90.14
85097;SHT30;75436;53.502;10.030;2024-03-08T01:06:59;0.34;90.33
85097;SHT30;75436;53.502;10.030;2024-03-08T01:09:25;0.30;90.31
85097;SHT30;75436;53.502;10.030;2024-03-08T01:11:52;0.30;90.54
85097;SHT30;75436;53.502;10.030;2024-03-08T01:14:22;0.32;90.68
85097;SHT30;75436;53.502;10.030;2024-03-08T01:16:48;0.33;90.82
85097;SHT30;75436;53.502;10.030;2024-03-08T01:19:14;0.30;90.71
85097;SHT30;75436;53.502;10.030;2024-03-08T01:21:41;0.27;90.68
85097;SHT30;75436;53.502;10.030;2024-03-08T01:24:07;0.23;90.66
85097;SHT30;75436;53.502;10.030;2024-03-08T01:26:32;0.17;90.70
85097;SHT30;75436;53.502;10.030;2024-03-08T01:29:00;0.16;91.02
85097;SHT30;75436;53.502;10.030;2024-03-08T01:31:25;0.10;90.97
85097;SHT30;75436;53.502;10.030;2024-03-08T01:33:51;0.13;91.31
85097;SHT30;75436;53.502;10.030;2024-03-08T01:36:16;0.13;91.19
85097;SHT30;75436;53.502;10.030;2024-03-08T01:38:44;0.10;91.49
85097;SHT30;75436;53.502;10.030;2024-03-08T01:41:10;0.03;91.46
85097;SHT30;75436;53.502;10.030;2024-03-08T01:43:35;-0.01;91.40
85097;SHT30;75436;53.502;10.030;2024-03-08T01:46:01;-0.02;91.65
85097;SHT30;75436;53.502;10.030;2024-03-08T01:48:28;0.07;91.85
85097;SHT30;75436;53.502;10.030;2024-03-08T01:50:56;0.07;91.74
85097;SHT30;75436;53.502;10.030;2024-03-08T01:53:24;0.07;91.77
85097;SHT30;75436;53.502;10.030;2024-03-08T01:55:56;0.05;91.67
85097;SHT30;75436;53.502;10.030;2024-03-08T01:58:23;0.02;91.73
85097;SHT30;75436;53.502;10.030;2024-03-08T02:00:49;-0.01;91.76
85097;SHT30;75436;53.502;10.030;2024-03-08T02:03:18;-0.05;91.88
85097;SHT30;75436;53.502;10.030;2024-03-08T02:05:44;-0.09;91.87
85097;SHT30;75436;53.502;10.030;2024-03-08T02:08:10;-0.16;91.96
85097;SHT30;75436;53.502;10.030;2024-03-08T02:10:46;-0.16;92.06
85097;SHT30;75436;53.502;10.030;2024-03-08T02:13:12;-0.23;92.12
85097;SHT30;75436;53.502;10.030;2024-03-08T02:15:57;-0.22;92.27
85097;SHT30;75436;53.502;10.030;2024-03-08T02:18:26;-0.19;92.37
85097;SHT30;75436;53.502;10.030;2024-03-08T02:20:53;-0.23;92.29
85097;SHT30;75436;53.502;10.030;2024-03-08T02:23:20;-0.35;92.23
85097;SHT30;75436;53.502;10.030;2024-03-08T02:25:47;-0.39;92.31
85097;SHT30;75436;53.502;10.030;2024-03-08T02:28:13;-0.39;92.44
85097;SHT30;75436;53.502;10.030;2024-03-08T02:30:39;-0.45;92.63
85097;SHT30;75436;53.502;10.030;2024-03-08T02:33:05;-0.39;92.70
85097;SHT30;75436;53.502;10.030;2024-03-08T02:35:32;-0.40;92.73
85097;SHT30;75436;53.502;10.030;2024-03-08T02:37:58;-0.45;92.81
85097;SHT30;75436;53.502;10.030;2024-03-08T02:40:23;-0.48;92.82
85097;SHT30;75436;53.502;10.030;2024-03-08T02:42:49;-0.50;92.78
85097;SHT30;75436;53.502;10.030;2024-03-08T02:45:14;-0.53;93.01
85097;SHT30;75436;53.502;10.030;2024-03-08T02:47:40;-0.50;93.13
85097;SHT30;75436;53.502;10.030;2024-03-08T02:50:06;-0.46;93.23
85097;SHT30;75436;53.502;10.030;2024-03-08T02:52:34;-0.48;93.29
85097;SHT30;75436;53.502;10.030;2024-03-08T02:55:01;-0.52;93.15
85097;SHT30;75436;53.502;10.030;2024-03-08T02:57:26;-0.57;93.30
85097;SHT30;75436;53.502;10.030;2024-03-08T02:59:53;-0.62;93.30
85097;SHT30;75436;53.502;10.030;2024-03-08T03:02:19;-0.66;93.32
85097;SHT30;75436;53.502;10.030;2024-03-08T03:04:45;-0.62;93.38
85097;SHT30;75436;53.502;10.030;2024-03-08T03:07:10;-0.69;93.27
85097;SHT30;75436;53.502;10.030;2024-03-08T03:09:37;-0.72;93.30
85097;SHT30;75436;53.502;10.030;2024-03-08T03:12:03;-0.66;93.56
85097;SHT30;75436;53.502;10.030;2024-03-08T03:14:28;-0.69;93.55
85097;SHT30;75436;53.502;10.030;2024-03-08T03:16:54;-0.66;93.63
85097;SHT30;75436;53.502;10.030;2024-03-08T03:19:20;-0.60;93.74
85097;SHT30;75436;53.502;10.030;2024-03-08T03:21:46;-0.66;93.74
85097;SHT30;75436;53.502;10.030;2024-03-08T03:24:12;-0.65;93.84
85097;SHT30;75436;53.502;10.030;2024-03-08T03:26:38;-0.65;93.84
85097;SHT30;75436;53.502;10.030;2024-03-08T03:29:05;-0.72;93.73
85097;SHT30;75436;53.502;10.030;2024-03-08T03:31:31;-0.74;93.88
85097;SHT30;75436;53.502;10.030;2024-03-08T03:33:57;-0.77;94.06
85097;SHT30;75436;53.502;10.030;2024-03-08T03:36:27;-0.74;93.99
85097;SHT30;75436;53.502;10.030;2024-03-08T03:38:53;-0.74;93.95
85097;SHT30;75436;53.502;10.030;2024-03-08T03:41:30;-0.77;94.05
85097;SHT30;75436;53.502;10.030;2024-03-08T03:43:55;-0.81;94.06
85097;SHT30;75436;53.502;10.030;2024-03-08T03:46:21;-0.80;94.08
85097;SHT30;75436;53.502;10.030;2024-03-08T03:48:46;-0.73;94.18
85097;SHT30;75436;53.502;10.030;2024-03-08T03:51:12;-0.77;94.15
85097;SHT30;75436;53.502;10.030;2024-03-08T03:53:37;-0.70;94.22
85097;SHT30;75436;53.502;10.030;2024-03-08T03:56:03;-0.72;94.19
85097;SHT30;75436;53.502;10.030;2024-03-08T03:58:32;-0.72;94.22
85097;SHT30;75436;53.502;10.030;2024-03-08T04:00:58;-0.69;94.23
85097;SHT30;75436;53.502;10.030;2024-03-08T04:03:23;-0.67;94.26
85097;SHT30;75436;53.502;10.030;2024-03-08T04:05:49;-0.69;94.27
85097;SHT30;75436;53.502;10.030;2024-03-08T04:08:14;-0.67;94.21
85097;SHT30;75436;53.502;10.030;2024-03-08T04:10:40;-0.72;94.13
85097;SHT30;75436;53.502;10.030;2024-03-08T04:13:08;-0.66;94.21
85097;SHT30;75436;53.502;10.030;2024-03-08T04:15:35;-0.65;94.24
85097;SHT30;75436;53.502;10.030;2024-03-08T04:18:00;-0.67;94.20
85097;SHT30;75436;53.502;10.030;2024-03-08T04:20:26;-0.70;94.16
85097;SHT30;75436;53.502;10.030;2024-03-08T04:22:51;-0.70;94.22
85097;SHT30;75436;53.502;10.030;2024-03-08T04:25:17;-0.70;94.15
85097;SHT30;75436;53.502;10.030;2024-03-08T04:27:43;-0.72;94.12
85097;SHT30;75436;53.502;10.030;2024-03-08T04:30:10;-0.77;94.16
85097;SHT30;75436;53.502;10.030;2024-03-08T04:32:35;-0.79;94.15
85097;SHT30;75436;53.502;10.030;2024-03-08T04:35:01;-0.80;94.17
85097;SHT30;75436;53.502;10.030;2024-03-08T04:37:27;-0.72;94.40
85097;SHT30;75436;53.502;10.030;2024-03-08T04:39:55;-0.73;94.26
85097;SHT30;75436;53.502;10.030;2024-03-08T04:42:20;-0.77;94.23
85097;SHT30;75436;53.502;10.030;2024-03-08T04:44:46;-0.79;94.26
85097;SHT30;75436;53.502;10.030;2024-03-08T04:47:11;-0.81;94.18
85097;SHT30;75436;53.502;10.030;2024-03-08T04:49:37;-0.76;94.29
85097;SHT30;75436;53.502;10.030;2024-03-08T04:52:03;-0.77;94.23
85097;SHT30;75436;53.502;10.030;2024-03-08T04:54:30;-0.79;94.29
85097;SHT30;75436;53.502;10.030;2024-03-08T04:56:56;-0.81;94.30
85097;SHT30;75436;53.502;10.030;2024-03-08T04:59:21;-0.74;94.37
85097;SHT30;75436;53.502;10.030;2024-03-08T05:01:47;-0.73;94.35
85097;SHT30;75436;53.502;10.030;2024-03-08T05:04:13;-0.72;94.40
85097;SHT30;75436;53.502;10.030;2024-03-08T05:06:39;-0.73;94.34
85097;SHT30;75436;53.502;10.030;2024-03-08T05:09:04;-0.76;94.32
85097;SHT30;75436;53.502;10.030;2024-03-08T05:11:46;-0.73;94.16
85097;SHT30;75436;53.502;10.030;2024-03-08T05:14:15;-0.77;94.22
85097;SHT30;75436;53.502;10.030;2024-03-08T05:16:47;-0.76;94.22
85097;SHT30;75436;53.502;10.030;2024-03-08T05:19:19;-0.81;94.22
85097;SHT30;75436;53.502;10.030;2024-03-08T05:21:46;-0.79;94.24
85097;SHT30;75436;53.502;10.030;2024-03-08T05:24:12;-0.77;94.29
85097;SHT30;75436;53.502;10.030;2024-03-08T05:26:39;-0.76;94.27
85097;SHT30;75436;53.502;10.030;2024-03-08T05:29:04;-0.80;94.22
85097;SHT30;75436;53.502;10.030;2024-03-08T05:31:50;-0.74;94.21
85097;SHT30;75436;53.502;10.030;2024-03-08T05:34:18;-0.79;94.23
85097;SHT30;75436;53.502;10.030;2024-03-08T05:36:48;-0.79;94.23
85097;SHT30;75436;53.502;10.030;2024-03-08T05:39:16;-0.80;94.13
85097;SHT30;75436;53.502;10.030;2024-03-08T05:41:43;-0.80;94.19
85097;SHT30;75436;53.502;10.030;2024-03-08T05:44:10;-0.81;94.14
85097;SHT30;75436;53.502;10.030;2024-03-08T05:46:37;-0.86;94.20
85097;SHT30;75436;53.502;10.030;2024-03-08T05:49:03;-0.88;94.17
85097;SHT30;75436;53.502;10.030;2024-03-08T05:51:33;-0.87;94.19
85097;SHT30;75436;53.502;10.030;2024-03-08T05:54:07;-0.87;94.21
85097;SHT30;75436;53.502;10.030;2024-03-08T05:56:34;-0.88;94.26
85097;SHT30;75436;53.502;10.030;2024-03-08T05:58:59;-0.88;94.29
85097;SHT30;75436;53.502;10.030;2024-03-08T06:01:25;-0.87;94.32
85097;SHT30;75436;53.502;10.030;2024-03-08T06:03:52;-0.84;94.38
85097;SHT30;75436;53.502;10.030;2024-03-08T06:06:21;-0.86;94.23
85097;SHT30;75436;53.502;10.030;2024-03-08T06:08:47;-0.81;94.27
85097;SHT30;75436;53.502;10.030;2024-03-08T06:11:15;-0.86;94.16
85097;SHT30;75436;53.502;10.030;2024-03-08T06:13:42;-0.81;94.25
85097;SHT30;75436;53.502;10.030;2024-03-08T06:16:07;-0.83;94.19
85097;SHT30;75436;53.502;10.030;2024-03-08T06:18:36;-0.86;94.18
85097;SHT30;75436;53.502;10.030;2024-03-08T06:21:05;-0.80;94.23
85097;SHT30;75436;53.502;10.030;2024-03-08T06:23:34;-0.83;94.14
85097;SHT30;75436;53.502;10.030;2024-03-08T06:26:04;-0.73;94.21
85097;SHT30;75436;53.502;10.030;2024-03-08T06:28:31;-0.67;94.15
85097;SHT30;75436;53.502;10.030;2024-03-08T06:31:01;-0.63;94.06
85097;SHT30;75436;53.502;10.030;2024-03-08T06:33:28;-0.62;94.04
85097;SHT30;75436;53.502;10.030;2024-03-08T06:35:56;-0.49;93.99
85097;SHT30;75436;53.502;10.030;2024-03-08T06:38:25;-0.45;93.75
85097;SHT30;75436;53.502;10.030;2024-03-08T06:40:51;-0.42;93.66
85097;SHT30;75436;53.502;10.030;2024-03-08T06:43:17;-0.32;93.60
85097;SHT30;75436;53.502;10.030;2024-03-08T06:45:44;-0.25;93.49
85097;SHT30;75436;53.502;10.030;2024-03-08T06:48:19;-0.21;93.02
85097;SHT30;75436;53.502;10.030;2024-03-08T06:50:46;-0.11;93.05
85097;SHT30;75436;53.502;10.030;2024-03-08T06:53:13;-0.04;92.72
85097;SHT30;75436;53.502;10.030;2024-03-08T06:55:39;0.06;92.40
85097;SHT30;75436;53.502;10.030;2024-03-08T06:58:05;0.14;92.46
85097;SHT30;75436;53.502;10.030;2024-03-08T07:00:32;0.22;91.98
85097;SHT30;75436;53.502;10.030;2024-03-08T07:02:57;0.29;91.64
85097;SHT30;75436;53.502;10.030;2024-03-08T07:05:29;0.37;91.09
85097;SHT30;75436;53.502;10.030;2024-03-08T07:07:56;0.50;90.71
85097;SHT30;75436;53.502;10.030;2024-03-08T07:10:22;0.57;90.52
85097;SHT30;75436;53.502;10.030;2024-03-08T07:12:50;0.70;89.75
85097;SHT30;75436;53.502;10.030;2024-03-08T07:15:16;0.77;89.50
85097;SHT30;75436;53.502;10.030;2024-03-08T07:17:45;0.80;89.19
85097;SHT30;75436;53.502;10.030;2024-03-08T07:20:11;0.85;88.93
85097;SHT30;75436;53.502;10.030;2024-03-08T07:22:39;0.95;88.28
85097;SHT30;75436;53.502;10.030;2024-03-08T07:25:08;1.03;87.82
85097;SHT30;75436;53.502;10.030;2024-03-08T07:30:12;1.19;87.17
85097;SHT30;75436;53.502;10.030;2024-03-08T07:32:38;1.31;87.06
85097;SHT30;75436;53.502;10.030;2024-03-08T07:35:04;1.38;87.03
85097;SHT30;75436;53.502;10.030;2024-03-08T07:37:30;1.47;85.87
85097;SHT30;75436;53.502;10.030;2024-03-08T07:39:56;1.60;85.51
85097;SHT30;75436;53.502;10.030;2024-03-08T07:42:23;1.67;84.92
85097;SHT30;75436;53.502;10.030;2024-03-08T07:44:48;1.70;84.70
85097;SHT30;75436;53.502;10.030;2024-03-08T07:47:15;1.82;84.60
85097;SHT30;75436;53.502;10.030;2024-03-08T07:49:42;1.88;83.81
85097;SHT30;75436;53.502;10.030;2024-03-08T07:52:09;1.97;83.08
85097;SHT30;75436;53.502;10.030;2024-03-08T07:54:35;2.02;82.75
85097;SHT30;75436;53.502;10.030;2024-03-08T07:57:00;2.25;82.33
85097;SHT30;75436;53.502;10.030;2024-03-08T07:59:28;2.24;82.06
85097;SHT30;75436;53.502;10.030;2024-03-08T08:01:54;2.31;82.46
85097;SHT30;75436;53.502;10.030;2024-03-08T08:04:20;2.52;80.96
85097;SHT30;75436;53.502;10.030;2024-03-08T08:06:50;2.43;81.09
85097;SHT30;75436;53.502;10.030;2024-03-08T08:09:16;2.39;80.38
85097;SHT30;75436;53.502;10.030;2024-03-08T08:11:47;2.49;80.79
85097;SHT30;75436;53.502;10.030;2024-03-08T08:14:12;2.54;80.51
85097;SHT30;75436;53.502;10.030;2024-03-08T08:16:38;2.69;80.28
85097;SHT30;75436;53.502;10.030;2024-03-08T08:19:07;2.73;79.32
85097;SHT30;75436;53.502;10.030;2024-03-08T08:21:35;2.86;79.79
85097;SHT30;75436;53.502;10.030;2024-03-08T08:24:04;3.00;79.65
85097;SHT30;75436;53.502;10.030;2024-03-08T08:26:30;3.01;78.20
85097;SHT30;75436;53.502;10.030;2024-03-08T08:28:55;3.12;77.48
85097;SHT30;75436;53.502;10.030;2024-03-08T08:31:21;3.14;77.37
85097;SHT30;75436;53.502;10.030;2024-03-08T08:33:46;3.34;76.41
85097;SHT30;75436;53.502;10.030;2024-03-08T08:36:14;3.56;75.79
85097;SHT30;75436;53.502;10.030;2024-03-08T08:38:39;3.63;75.57
85097;SHT30;75436;53.502;10.030;2024-03-08T08:41:05;3.83;74.96
85097;SHT30;75436;53.502;10.030;2024-03-08T08:43:31;3.99;73.81
85097;SHT30;75436;53.502;10.030;2024-03-08T08:45:58;4.13;73.55
85097;SHT30;75436;53.502;10.030;2024-03-08T08:48:24;4.27;72.42
85097;SHT30;75436;53.502;10.030;2024-03-08T08:50:50;4.48;72.31
85097;SHT30;75436;53.502;10.030;2024-03-08T08:53:17;4.99;71.89
85097;SHT30;75436;53.502;10.030;2024-03-08T08:55:43;5.43;71.26
85097;SHT30;75436;53.502;10.030;2024-03-08T08:58:11;5.50;68.86
85097;SHT30;75436;53.502;10.030;2024-03-08T09:00:36;5.38;67.37
85097;SHT30;75436;53.502;10.030;2024-03-08T09:03:02;5.57;67.96
85097;SHT30;75436;53.502;10.030;2024-03-08T09:05:27;6.29;65.90
85097;SHT30;75436;53.502;10.030;2024-03-08T09:07:53;6.10;65.44
85097;SHT30;75436;53.502;10.030;2024-03-08T09:10:19;6.25;65.52
85097;SHT30;75436;53.502;10.030;2024-03-08T09:12:45;6.75;64.35
85097;SHT30;75436;53.502;10.030;2024-03-08T09:15:10;7.26;61.69
85097;SHT30;75436;53.502;10.030;2024-03-08T09:17:42;7.70;61.49
85097;SHT30;75436;53.502;10.030;2024-03-08T09:20:10;7.78;59.46
85097;SHT30;75436;53.502;10.030;2024-03-08T09:22:39;8.08;57.91
85097;SHT30;75436;53.502;10.030;2024-03-08T09:25:06;8.02;57.38
85097;SHT30;75436;53.502;10.030;2024-03-08T09:27:33;7.98;57.09
85097;SHT30;75436;53.502;10.030;2024-03-08T09:29:59;8.79;55.87
85097;SHT30;75436;53.502;10.030;2024-03-08T09:32:24;9.18;57.30
85097;SHT30;75436;53.502;10.030;2024-03-08T09:34:50;9.27;54.31
85097;SHT30;75436;53.502;10.030;2024-03-08T09:37:15;9.25;53.90
85097;SHT30;75436;53.502;10.030;2024-03-08T09:39:41;9.27;53.20
85097;SHT30;75436;53.502;10.030;2024-03-08T09:42:07;8.57;54.56
85097;SHT30;75436;53.502;10.030;2024-03-08T09:44:34;9.30;54.56
85097;SHT30;75436;53.502;10.030;2024-03-08T09:47:00;9.69;53.49
85097;SHT30;75436;53.502;10.030;2024-03-08T09:49:27;9.28;52.87
85097;SHT30;75436;53.502;10.030;2024-03-08T09:51:54;9.34;51.90
85097;SHT30;75436;53.502;10.030;2024-03-08T09:54:21;9.03;54.07
85097;SHT30;75436;53.502;10.030;2024-03-08T09:56:48;9.14;53.28
85097;SHT30;75436;53.502;10.030;2024-03-08T09:59:16;8.97;53.59
85097;SHT30;75436;53.502;10.030;2024-03-08T10:01:48;8.93;54.20
85097;SHT30;75436;53.502;10.030;2024-03-08T10:04:13;8.64;54.39
85097;SHT30;75436;53.502;10.030;2024-03-08T10:06:40;9.28;53.22
85097;SHT30;75436;53.502;10.030;2024-03-08T10:09:06;9.13;54.26
85097;SHT30;75436;53.502;10.030;2024-03-08T10:11:33;9.36;53.95
85097;SHT30;75436;53.502;10.030;2024-03-08T10:14:00;9.43;51.76
85097;SHT30;75436;53.502;10.030;2024-03-08T10:16:27;9.31;52.51
85097;SHT30;75436;53.502;10.030;2024-03-08T10:18:54;8.85;54.20
85097;SHT30;75436;53.502;10.030;2024-03-08T10:21:21;8.62;54.36
85097;SHT30;75436;53.502;10.030;2024-03-08T10:23:46;9.07;54.86
85097;SHT30;75436;53.502;10.030;2024-03-08T10:26:15;9.38;53.26
85097;SHT30;75436;53.502;10.030;2024-03-08T10:28:46;9.38;52.57
85097;SHT30;75436;53.502;10.030;2024-03-08T10:31:16;9.27;53.46
85097;SHT30;75436;53.502;10.030;2024-03-08T10:33:43;8.88;54.58
85097;SHT30;75436;53.502;10.030;2024-03-08T10:36:10;9.32;54.04
85097;SHT30;75436;53.502;10.030;2024-03-08T10:38:41;9.05;54.33
85097;SHT30;75436;53.502;10.030;2024-03-08T10:41:09;8.70;53.64
85097;SHT30;75436;53.502;10.030;2024-03-08T10:49:17;9.43;55.12
85097;SHT30;75436;53.502;10.030;2024-03-08T10:51:44;9.03;52.87
85097;SHT30;75436;53.502;10.030;2024-03-08T10:54:11;9.51;51.98
85097;SHT30;75436;53.502;10.030;2024-03-08T10:56:38;9.55;51.39
85097;SHT30;75436;53.502;10.030;2024-03-08T10:59:08;9.11;52.17
85097;SHT30;75436;53.502;10.030;2024-03-08T11:01:34;9.52;51.36
85097;SHT30;75436;53.502;10.030;2024-03-08T11:03:59;10.44;50.95
85097;SHT30;75436;53.502;10.030;2024-03-08T11:09:08;11.34;47.67
85097;SHT30;75436;53.502;10.030;2024-03-08T11:11:38;12.04;43.26
85097;SHT30;75436;53.502;10.030;2024-03-08T11:14:44;11.20;46.47
85097;SHT30;75436;53.502;10.030;2024-03-08T11:17:13;11.87;46.17
85097;SHT30;75436;53.502;10.030;2024-03-08T11:19:46;11.24;44.39
85097;SHT30;75436;53.502;10.030;2024-03-08T11:22:22;11.51;45.04
85097;SHT30;75436;53.502;10.030;2024-03-08T11:24:49;11.50;44.98
85097;SHT30;75436;53.502;10.030;2024-03-08T11:27:15;11.31;43.87
85097;SHT30;75436;53.502;10.030;2024-03-08T11:29:41;11.00;45.07
85097;SHT30;75436;53.502;10.030;2024-03-08T11:32:16;11.48;43.38
85097;SHT30;75436;53.502;10.030;2024-03-08T11:34:47;10.98;45.80
85097;SHT30;75436;53.502;10.030;2024-03-08T11:37:16;11.24;44.64
85097;SHT30;75436;53.502;10.030;2024-03-08T11:40:01;11.53;44.20
85097;SHT30;75436;53.502;10.030;2024-03-08T11:42:30;11.71;44.37
85097;SHT30;75436;53.502;10.030;2024-03-08T11:44:56;12.06;45.34
85097;SHT30;75436;53.502;10.030;2024-03-08T11:47:22;12.19;44.37
85097;SHT30;75436;53.502;10.030;2024-03-08T11:49:47;11.74;43.43
85097;SHT30;75436;53.502;10.030;2024-03-08T11:52:15;10.95;44.47
85097;SHT30;75436;53.502;10.030;2024-03-08T11:54:42;11.27;43.75
85097;SHT30;75436;53.502;10.030;2024-03-08T11:57:09;11.47;43.94
85097;SHT30;75436;53.502;10.030;2024-03-08T11:59:35;11.26;45.78
85097;SHT30;75436;53.502;10.030;2024-03-08T12:02:04;11.51;45.06
85097;SHT30;75436;53.502;10.030;2024-03-08T12:04:31;11.51;45.42
85097;SHT30;75436;53.502;10.030;2024-03-08T12:07:00;11.64;45.10
85097;SHT30;75436;53.502;10.030;2024-03-08T12:09:35;11.97;43.34
85097;SHT30;75436;53.502;10.030;2024-03-08T12:12:02;11.77;44.81
85097;SHT30;75436;53.502;10.030;2024-03-08T12:14:30;11.20;44.75
85097;SHT30;75436;53.502;10.030;2024-03-08T12:16:55;11.87;43.92
85097;SHT30;75436;53.502;10.030;2024-03-08T12:19:20;12.37;42.62
85097;SHT30;75436;53.502;10.030;2024-03-08T12:21:46;11.84;43.70
85097;SHT30;75436;53.502;10.030;2024-03-08T12:24:18;12.22;41.54
85097;SHT30;75436;53.502;10.030;2024-03-08T12:26:48;11.68;41.74
85097;SHT30;75436;53.502;10.030;2024-03-08T12:31:41;12.52;42.79
85097;SHT30;75436;53.502;10.030;2024-03-08T12:34:08;12.46;40.30
85097;SHT30;75436;53.502;10.030;2024-03-08T12:36:35;12.60;43.39
85097;SHT30;75436;53.502;10.030;2024-03-08T12:39:05;12.45;41.61
85097;SHT30;75436;53.502;10.030;2024-03-08T12:41:32;13.25;41.97
85097;SHT30;75436;53.502;10.030;2024-03-08T12:44:04;13.51;42.04
85097;SHT30;75436;53.502;10.030;2024-03-08T12:46:32;12.87;41.21
85097;SHT30;75436;53.502;10.030;2024-03-08T12:48:58;13.65;40.58
85097;SHT30;75436;53.502;10.030;2024-03-08T12:51:24;13.25;39.79
85097;SHT30;75436;53.502;10.030;2024-03-08T12:53:50;13.26;38.99
85097;SHT30;75436;53.502;10.030;2024-03-08T12:56:30;13.48;41.28
85097;SHT30;75436;53.502;10.030;2024-03-08T12:58:57;13.34;39.47
85097;SHT30;75436;53.502;10.030;2024-03-08T13:01:23;13.46;41.83
85097;SHT30;75436;53.502;10.030;2024-03-08T13:03:48;13.32;40.88
85097;SHT30;75436;53.502;10.030;2024-03-08T13:06:15;13.19;40.24
85097;SHT30;75436;53.502;10.030;2024-03-08T13:08:41;12.94;39.55
85097;SHT30;75436;53.502;10.030;2024-03-08T13:11:10;12.26;40.87
85097;SHT30;75436;53.502;10.030;2024-03-08T13:13:40;13.44;40.01
85097;SHT30;75436;53.502;10.030;2024-03-08T13:16:06;13.26;39.98
85097;SHT30;75436;53.502;10.030;2024-03-08T13:18:36;13.26;39.24
85097;SHT30;75436;53.502;10.030;2024-03-08T13:21:01;13.24;39.70
85097;SHT30;75436;53.502;10.030;2024-03-08T13:23:34;12.97;38.71
85097;SHT30;75436;53.502;10.030;2024-03-08T13:26:06;13.01;39.46
85097;SHT30;75436;53.502;10.030;2024-03-08T13:28:32;13.44;41.25
85097;SHT30;75436;53.502;10.030;2024-03-08T13:31:05;13.84;40.23
85097;SHT30;75436;53.502;10.030;2024-03-08T13:33:33;13.08;38.65
85097;SHT30;75436;53.502;10.030;2024-03-08T13:36:19;13.90;39.27
85097;SHT30;75436;53.502;10.030;2024-03-08T13:38:47;13.79;37.69
85097;SHT30;75436;53.502;10.030;2024-03-08T13:41:15;12.95;38.32
85097;SHT30;75436;53.502;10.030;2024-03-08T13:43:43;12.70;39.27
85097;SHT30;75436;53.502;10.030;2024-03-08T13:46:09;12.80;38.69
85097;SHT30;75436;53.502;10.030;2024-03-08T13:48:36;12.87;38.78
85097;SHT30;75436;53.502;10.030;2024-03-08T13:51:04;13.82;36.97
85097;SHT30;75436;53.502;10.030;2024-03-08T13:53:31;13.83;36.48
85097;SHT30;75436;53.502;10.030;2024-03-08T13:55:57;13.83;37.42
85097;SHT30;75436;53.502;10.030;2024-03-08T13:58:22;13.44;36.53
85097;SHT30;75436;53.502;10.030;2024-03-08T14:00:48;13.01;39.08
85097;SHT30;75436;53.502;10.030;2024-03-08T14:03:14;13.18;37.79
85097;SHT30;75436;53.502;10.030;2024-03-08T14:05:40;13.21;37.86
85097;SHT30;75436;53.502;10.030;2024-03-08T14:08:07;13.44;37.73
85097;SHT30;75436;53.502;10.030;2024-03-08T14:10:36;12.90;38.63
85097;SHT30;75436;53.502;10.030;2024-03-08T14:13:05;13.24;37.62
85097;SHT30;75436;53.502;10.030;2024-03-08T14:15:32;12.64;38.57
85097;SHT30;75436;53.502;10.030;2024-03-08T14:17:57;12.84;39.43
85097;SHT30;75436;53.502;10.030;2024-03-08T14:20:23;12.36;39.88
85097;SHT30;75436;53.502;10.030;2024-03-08T14:22:56;12.09;39.84
85097;SHT30;75436;53.502;10.030;2024-03-08T14:25:23;12.09;41.60
85097;SHT30;75436;53.502;10.030;2024-03-08T14:27:53;11.64;40.93
85097;SHT30;75436;53.502;10.030;2024-03-08T14:30:20;11.36;43.44
85097;SHT30;75436;53.502;10.030;2024-03-08T14:33:05;11.19;43.15
85097;SHT30;75436;53.502;10.030;2024-03-08T14:35:31;10.67;44.44
85097;SHT30;75436;53.502;10.030;2024-03-08T14:37:57;10.81;44.15
85097;SHT30;75436;53.502;10.030;2024-03-08T14:40:24;10.88;42.95
85097;SHT30;75436;53.502;10.030;2024-03-08T14:42:50;10.79;43.43
85097;SHT30;75436;53.502;10.030;2024-03-08T14:45:16;10.91;43.29
85097;SHT30;75436;53.502;10.030;2024-03-08T14:47:45;10.64;43.25
85097;SHT30;75436;53.502;10.030;2024-03-08T14:50:18;10.67;43.27
85097;SHT30;75436;53.502;10.030;2024-03-08T14:52:45;10.64;43.70
85097;SHT30;75436;53.502;10.030;2024-03-08T14:55:17;10.58;42.56
85097;SHT30;75436;53.502;10.030;2024-03-08T14:57:45;10.20;42.77
85097;SHT30;75436;53.502;10.030;2024-03-08T15:00:12;10.13;43.90
85097;SHT30;75436;53.502;10.030;2024-03-08T15:02:43;10.20;43.26
85097;SHT30;75436;53.502;10.030;2024-03-08T15:05:09;9.66;44.03
85097;SHT30;75436;53.502;10.030;2024-03-08T15:07:38;9.99;45.49
85097;SHT30;75436;53.502;10.030;2024-03-08T15:10:07;10.01;45.68
85097;SHT30;75436;53.502;10.030;2024-03-08T15:12:37;9.76;44.59
85097;SHT30;75436;53.502;10.030;2024-03-08T15:15:07;9.68;45.23
85097;SHT30;75436;53.502;10.030;2024-03-08T15:17:34;9.68;44.94
85097;SHT30;75436;53.502;10.030;2024-03-08T15:20:00;9.63;45.42
85097;SHT30;75436;53.502;10.030;2024-03-08T15:22:26;9.42;45.54
85097;SHT30;75436;53.502;10.030;2024-03-08T15:24:52;9.32;45.97
85097;SHT30;75436;53.502;10.030;2024-03-08T15:27:18;9.52;45.69
85097;SHT30;75436;53.502;10.030;2024-03-08T15:29:44;9.61;46.04
85097;SHT30;75436;53.502;10.030;2024-03-08T15:32:14;9.52;45.14
85097;SHT30;75436;53.502;10.030;2024-03-08T15:34:45;9.32;45.94
85097;SHT30;75436;53.502;10.030;2024-03-08T15:37:11;9.22;46.74